sensor_id;sensor_type;location;lat;lon;timestamp;P1;durP1;ratioP1;P2;durP2;ratioP2
75630;SDS011;64215;51.040;6.690;2022-12-24T10:46:23;13.95;;;4.57;;
75630;SDS011;64215;51.040;6.690;2022-12-24T10:48:58;10.43;;;4.38;;
75630;SDS011;64215;51.040;6.690;2022-12-24T10:54:15;11.15;;;4.13;;
75630;SDS011;64215;51.040;6.690;2022-12-24T10:56:46;10.52;;;4.03;;
75630;SDS011;64215;51.040;6.690;2022-12-24T10:59:27;10.40;;;3.80;;
75630;SDS011;64215;51.040;6.690;2022-12-24T11:01:56;10.50;;;4.30;;
75630;SDS011;64215;51.040;6.690;2022-12-24T11:04:24;10.05;;;4.50;;
75630;SDS011;64215;51.040;6.690;2022-12-24T11:12:05;8.50;;;3.50;;
75630;SDS011;64215;51.040;6.690;2022-12-24T11:14:43;8.18;;;3.22;;
75630;SDS011;64215;51.040;6.690;2022-12-24T11:17:17;8.77;;;3.75;;
75630;SDS011;64215;51.040;6.690;2022-12-24T11:19:46;8.68;;;3.42;;
75630;SDS011;64215;51.040;6.690;2022-12-24T11:22:27;12.35;;;3.72;;
75630;SDS011;64215;51.040;6.690;2022-12-24T11:32:40;10.20;;;3.50;;
75630;SDS011;64215;51.040;6.690;2022-12-24T11:35:06;8.02;;;3.15;;
75630;SDS011;64215;51.040;6.690;2022-12-24T11:37:38;8.98;;;4.03;;
75630;SDS011;64215;51.040;6.690;2022-12-24T11:40:03;8.18;;;3.70;;
75630;SDS011;64215;51.040;6.690;2022-12-24T11:42:33;8.57;;;3.50;;
75630;SDS011;64215;51.040;6.690;2022-12-24T11:45:03;8.40;;;3.58;;
75630;SDS011;64215;51.040;6.690;2022-12-24T11:47:33;9.73;;;3.60;;
75630;SDS011;64215;51.040;6.690;2022-12-24T11:52:45;11.43;;;3.38;;
75630;SDS011;64215;51.040;6.690;2022-12-24T12:00:22;8.40;;;2.80;;
75630;SDS011;64215;51.040;6.690;2022-12-24T12:02:48;8.05;;;3.00;;
75630;SDS011;64215;51.040;6.690;2022-12-24T12:05:17;8.90;;;2.92;;
75630;SDS011;64215;51.040;6.690;2022-12-24T12:07:51;7.68;;;3.08;;
75630;SDS011;64215;51.040;6.690;2022-12-24T12:10:24;7.35;;;2.58;;
75630;SDS011;64215;51.040;6.690;2022-12-24T12:12:59;7.28;;;2.83;;
75630;SDS011;64215;51.040;6.690;2022-12-24T12:15:32;7.75;;;3.03;;
75630;SDS011;64215;51.040;6.690;2022-12-24T12:18:11;9.48;;;2.75;;
75630;SDS011;64215;51.040;6.690;2022-12-24T12:36:56;6.80;;;2.20;;
75630;SDS011;64215;51.040;6.690;2022-12-24T12:39:26;7.30;;;2.63;;
75630;SDS011;64215;51.040;6.690;2022-12-24T12:49:42;10.07;;;2.17;;
75630;SDS011;64215;51.040;6.690;2022-12-24T12:55:35;5.75;;;1.90;;
75630;SDS011;64215;51.040;6.690;2022-12-24T12:58:22;5.57;;;1.98;;
75630;SDS011;64215;51.040;6.690;2022-12-24T13:00:52;5.97;;;2.42;;
75630;SDS011;64215;51.040;6.690;2022-12-24T13:10:12;4.78;;;2.00;;
75630;SDS011;64215;51.040;6.690;2022-12-24T13:12:30;6.00;;;2.20;;
75630;SDS011;64215;51.040;6.690;2022-12-24T13:15:45;6.03;;;2.20;;
75630;SDS011;64215;51.040;6.690;2022-12-24T13:20:41;7.57;;;2.10;;
75630;SDS011;64215;51.040;6.690;2022-12-24T13:23:21;4.88;;;1.80;;
75630;SDS011;64215;51.040;6.690;2022-12-24T13:25:49;4.85;;;1.92;;
75630;SDS011;64215;51.040;6.690;2022-12-24T13:28:37;5.85;;;1.73;;
75630;SDS011;64215;51.040;6.690;2022-12-24T13:33:53;6.00;;;1.88;;
75630;SDS011;64215;51.040;6.690;2022-12-24T13:38:47;6.10;;;2.10;;
75630;SDS011;64215;51.040;6.690;2022-12-24T13:50:11;5.78;;;1.83;;
75630;SDS011;64215;51.040;6.690;2022-12-24T13:52:32;4.50;;;1.60;;
75630;SDS011;64215;51.040;6.690;2022-12-24T13:59:52;8.07;;;2.40;;
75630;SDS011;64215;51.040;6.690;2022-12-24T14:02:29;21.35;;;3.30;;
75630;SDS011;64215;51.040;6.690;2022-12-24T14:05:00;22.73;;;3.33;;
75630;SDS011;64215;51.040;6.690;2022-12-24T14:07:29;20.63;;;3.70;;
75630;SDS011;64215;51.040;6.690;2022-12-24T14:09:55;29.83;;;6.03;;
75630;SDS011;64215;51.040;6.690;2022-12-24T14:12:32;30.55;;;5.70;;
75630;SDS011;64215;51.040;6.690;2022-12-24T14:18:21;20.00;;;5.07;;
75630;SDS011;64215;51.040;6.690;2022-12-24T14:20:49;19.52;;;3.42;;
75630;SDS011;64215;51.040;6.690;2022-12-24T14:23:34;19.83;;;3.70;;
75630;SDS011;64215;51.040;6.690;2022-12-24T14:26:20;19.55;;;4.35;;
75630;SDS011;64215;51.040;6.690;2022-12-24T14:28:57;13.38;;;3.15;;
75630;SDS011;64215;51.040;6.690;2022-12-24T14:31:30;13.48;;;2.78;;
75630;SDS011;64215;51.040;6.690;2022-12-24T14:34:11;20.42;;;3.08;;
75630;SDS011;64215;51.040;6.690;2022-12-24T14:36:37;11.05;;;2.95;;
75630;SDS011;64215;51.040;6.690;2022-12-24T14:39:05;12.55;;;2.97;;
75630;SDS011;64215;51.040;6.690;2022-12-24T14:47:36;15.10;;;2.95;;
75630;SDS011;64215;51.040;6.690;2022-12-24T14:52:49;10.60;;;2.38;;
75630;SDS011;64215;51.040;6.690;2022-12-24T14:55:39;10.05;;;2.70;;
75630;SDS011;64215;51.040;6.690;2022-12-24T14:58:20;11.82;;;2.72;;
75630;SDS011;64215;51.040;6.690;2022-12-24T15:01:39;11.95;;;2.63;;
75630;SDS011;64215;51.040;6.690;2022-12-24T15:03:46;11.02;;;2.35;;
75630;SDS011;64215;51.040;6.690;2022-12-24T15:06:47;9.95;;;2.35;;
75630;SDS011;64215;51.040;6.690;2022-12-24T15:09:26;13.45;;;3.42;;
75630;SDS011;64215;51.040;6.690;2022-12-24T15:11:55;8.65;;;2.10;;
75630;SDS011;64215;51.040;6.690;2022-12-24T15:14:24;11.85;;;2.28;;
75630;SDS011;64215;51.040;6.690;2022-12-24T15:16:52;11.40;;;2.97;;
75630;SDS011;64215;51.040;6.690;2022-12-24T15:19:25;11.05;;;2.53;;
75630;SDS011;64215;51.040;6.690;2022-12-24T15:21:55;7.60;;;2.15;;
75630;SDS011;64215;51.040;6.690;2022-12-24T15:29:25;12.18;;;2.25;;
75630;SDS011;64215;51.040;6.690;2022-12-24T15:31:52;9.98;;;2.28;;
75630;SDS011;64215;51.040;6.690;2022-12-24T15:37:20;10.55;;;1.95;;
75630;SDS011;64215;51.040;6.690;2022-12-24T15:39:52;7.28;;;1.88;;
75630;SDS011;64215;51.040;6.690;2022-12-24T15:42:24;9.70;;;1.90;;
75630;SDS011;64215;51.040;6.690;2022-12-24T15:44:59;6.95;;;1.70;;
75630;SDS011;64215;51.040;6.690;2022-12-24T15:47:35;8.98;;;2.35;;
75630;SDS011;64215;51.040;6.690;2022-12-24T15:50:17;9.63;;;1.70;;
75630;SDS011;64215;51.040;6.690;2022-12-24T15:52:48;7.57;;;2.20;;
75630;SDS011;64215;51.040;6.690;2022-12-24T15:55:28;7.60;;;1.80;;
75630;SDS011;64215;51.040;6.690;2022-12-24T15:57:58;5.70;;;1.63;;
75630;SDS011;64215;51.040;6.690;2022-12-24T16:00:24;6.85;;;2.00;;
75630;SDS011;64215;51.040;6.690;2022-12-24T16:03:10;6.03;;;2.30;;
75630;SDS011;64215;51.040;6.690;2022-12-24T16:05:44;6.38;;;1.70;;
75630;SDS011;64215;51.040;6.690;2022-12-24T16:10:39;6.60;;;1.70;;
75630;SDS011;64215;51.040;6.690;2022-12-24T16:16:00;8.45;;;1.60;;
75630;SDS011;64215;51.040;6.690;2022-12-24T16:20:58;4.93;;;1.35;;
75630;SDS011;64215;51.040;6.690;2022-12-24T16:23:45;3.75;;;1.20;;
75630;SDS011;64215;51.040;6.690;2022-12-24T16:26:11;6.13;;;1.80;;
75630;SDS011;64215;51.040;6.690;2022-12-24T16:28:37;4.57;;;1.63;;
75630;SDS011;64215;51.040;6.690;2022-12-24T16:31:03;4.78;;;1.25;;
75630;SDS011;64215;51.040;6.690;2022-12-24T16:33:28;6.13;;;1.42;;
75630;SDS011;64215;51.040;6.690;2022-12-24T16:35:54;7.43;;;1.75;;
75630;SDS011;64215;51.040;6.690;2022-12-24T16:38:20;5.97;;;1.55;;
75630;SDS011;64215;51.040;6.690;2022-12-24T16:40:46;4.75;;;1.45;;
75630;SDS011;64215;51.040;6.690;2022-12-24T16:43:12;6.70;;;1.40;;
75630;SDS011;64215;51.040;6.690;2022-12-24T16:46:01;3.30;;;1.20;;
75630;SDS011;64215;51.040;6.690;2022-12-24T16:48:28;3.30;;;1.40;;
75630;SDS011;64215;51.040;6.690;2022-12-24T16:50:54;3.28;;;1.25;;
75630;SDS011;64215;51.040;6.690;2022-12-24T16:53:20;3.33;;;1.05;;
75630;SDS011;64215;51.040;6.690;2022-12-24T16:55:46;6.10;;;1.70;;
75630;SDS011;64215;51.040;6.690;2022-12-24T16:58:14;6.65;;;1.73;;
75630;SDS011;64215;51.040;6.690;2022-12-24T17:00:41;3.67;;;1.10;;
75630;SDS011;64215;51.040;6.690;2022-12-24T17:03:06;2.85;;;1.23;;
75630;SDS011;64215;51.040;6.690;2022-12-24T17:05:32;5.78;;;1.58;;
75630;SDS011;64215;51.040;6.690;2022-12-24T17:08:01;2.28;;;1.00;;
75630;SDS011;64215;51.040;6.690;2022-12-24T17:10:26;3.03;;;1.30;;
75630;SDS011;64215;51.040;6.690;2022-12-24T17:12:52;4.20;;;1.00;;
75630;SDS011;64215;51.040;6.690;2022-12-24T17:15:17;4.25;;;1.73;;
75630;SDS011;64215;51.040;6.690;2022-12-24T17:17:43;5.10;;;1.20;;
75630;SDS011;64215;51.040;6.690;2022-12-24T17:20:09;2.13;;;1.10;;
75630;SDS011;64215;51.040;6.690;2022-12-24T17:22:35;4.13;;;1.00;;
75630;SDS011;64215;51.040;6.690;2022-12-24T17:25:00;4.72;;;0.98;;
75630;SDS011;64215;51.040;6.690;2022-12-24T17:27:26;2.75;;;1.23;;
75630;SDS011;64215;51.040;6.690;2022-12-24T17:29:51;1.65;;;0.90;;
75630;SDS011;64215;51.040;6.690;2022-12-24T17:32:17;2.47;;;0.93;;
75630;SDS011;64215;51.040;6.690;2022-12-24T17:34:42;4.20;;;1.25;;
75630;SDS011;64215;51.040;6.690;2022-12-24T17:37:08;2.97;;;1.02;;
75630;SDS011;64215;51.040;6.690;2022-12-24T17:39:33;4.45;;;1.30;;
75630;SDS011;64215;51.040;6.690;2022-12-24T17:41:58;2.63;;;0.93;;
75630;SDS011;64215;51.040;6.690;2022-12-24T17:44:24;3.83;;;1.13;;
75630;SDS011;64215;51.040;6.690;2022-12-24T17:46:49;2.95;;;1.20;;
75630;SDS011;64215;51.040;6.690;2022-12-24T17:49:16;2.70;;;1.00;;
75630;SDS011;64215;51.040;6.690;2022-12-24T17:51:41;3.22;;;1.10;;
75630;SDS011;64215;51.040;6.690;2022-12-24T17:54:07;2.28;;;1.10;;
75630;SDS011;64215;51.040;6.690;2022-12-24T17:56:32;4.18;;;0.90;;
75630;SDS011;64215;51.040;6.690;2022-12-24T17:58:58;2.42;;;1.00;;
75630;SDS011;64215;51.040;6.690;2022-12-24T18:01:24;3.13;;;1.10;;
75630;SDS011;64215;51.040;6.690;2022-12-24T18:03:54;2.58;;;1.10;;
75630;SDS011;64215;51.040;6.690;2022-12-24T18:06:23;2.42;;;0.90;;
75630;SDS011;64215;51.040;6.690;2022-12-24T18:08:49;2.33;;;0.98;;
75630;SDS011;64215;51.040;6.690;2022-12-24T18:13:49;3.28;;;1.00;;
75630;SDS011;64215;51.040;6.690;2022-12-24T18:16:20;2.97;;;1.40;;
75630;SDS011;64215;51.040;6.690;2022-12-24T18:18:50;2.85;;;1.20;;
75630;SDS011;64215;51.040;6.690;2022-12-24T18:21:16;1.73;;;0.75;;
75630;SDS011;64215;51.040;6.690;2022-12-24T18:23:43;3.95;;;0.95;;
75630;SDS011;64215;51.040;6.690;2022-12-24T18:26:11;1.92;;;1.08;;
75630;SDS011;64215;51.040;6.690;2022-12-24T18:28:38;1.77;;;0.82;;
75630;SDS011;64215;51.040;6.690;2022-12-24T18:31:05;2.50;;;0.80;;
75630;SDS011;64215;51.040;6.690;2022-12-24T18:33:32;1.95;;;1.00;;
75630;SDS011;64215;51.040;6.690;2022-12-24T18:35:59;1.88;;;1.00;;
75630;SDS011;64215;51.040;6.690;2022-12-24T18:38:26;1.83;;;0.80;;
75630;SDS011;64215;51.040;6.690;2022-12-24T18:40:51;3.25;;;1.20;;
75630;SDS011;64215;51.040;6.690;2022-12-24T18:43:17;2.70;;;0.73;;
75630;SDS011;64215;51.040;6.690;2022-12-24T18:45:43;2.15;;;1.05;;
75630;SDS011;64215;51.040;6.690;2022-12-24T18:48:10;1.02;;;0.77;;
75630;SDS011;64215;51.040;6.690;2022-12-24T18:50:36;2.55;;;1.00;;
75630;SDS011;64215;51.040;6.690;2022-12-24T18:53:03;1.90;;;0.90;;
75630;SDS011;64215;51.040;6.690;2022-12-24T18:55:33;2.15;;;1.00;;
75630;SDS011;64215;51.040;6.690;2022-12-24T18:58:01;2.05;;;0.80;;
